createdAt,value
2023-05-19T00:00:41.353Z,10.59
2023-05-19T00:01:41.335Z,10.44
2023-05-19T00:02:41.448Z,10.44
2023-05-19T00:03:41.310Z,10.44
2023-05-19T00:04:41.308Z,10.41
2023-05-19T00:05:41.403Z,10.41
2023-05-19T00:06:41.260Z,10.38
2023-05-19T00:07:41.256Z,10.46
2023-05-19T00:08:41.272Z,10.38
2023-05-19T00:09:41.235Z,10.42
2023-05-19T00:10:41.258Z,10.44
2023-05-19T00:11:41.209Z,10.42
2023-05-19T00:12:41.216Z,10.49
2023-05-19T00:13:41.170Z,10.41
2023-05-19T00:14:41.188Z,10.53
2023-05-19T00:15:41.235Z,10.48
2023-05-19T00:16:41.190Z,10.49
2023-05-19T00:17:41.217Z,10.46
2023-05-19T00:18:41.174Z,10.42
2023-05-19T00:19:41.142Z,10.49
2023-05-19T00:20:41.158Z,10.46
2023-05-19T00:21:41.147Z,10.46
2023-05-19T00:22:41.089Z,10.40
2023-05-19T00:23:41.100Z,10.40
2023-05-19T00:24:41.085Z,10.40
2023-05-19T00:25:41.070Z,10.38
2023-05-19T00:26:41.088Z,10.37
2023-05-19T00:27:41.048Z,10.37
2023-05-19T00:28:41.069Z,10.35
2023-05-19T00:29:41.047Z,10.33
2023-05-19T00:30:41.010Z,10.35
2023-05-19T00:31:41.053Z,10.30
2023-05-19T00:32:41.051Z,10.33
2023-05-19T00:33:40.984Z,10.37
2023-05-19T00:34:40.997Z,10.28
2023-05-19T00:35:41.033Z,10.34
2023-05-19T00:36:40.987Z,10.38
2023-05-19T00:37:40.998Z,10.35
2023-05-19T00:38:40.947Z,10.37
2023-05-19T00:39:40.940Z,10.41
2023-05-19T00:40:40.934Z,10.37
2023-05-19T00:41:40.924Z,10.33
2023-05-19T00:42:40.927Z,10.40
2023-05-19T00:43:40.905Z,10.38
2023-05-19T00:44:40.881Z,10.40
2023-05-19T00:45:40.876Z,10.35
2023-05-19T00:46:40.874Z,10.41
2023-05-19T00:47:40.891Z,10.37
2023-05-19T00:48:40.820Z,10.40
2023-05-19T00:49:40.857Z,10.35
2023-05-19T00:50:40.814Z,10.44
2023-05-19T00:51:40.803Z,10.40
2023-05-19T00:52:40.802Z,10.41
2023-05-19T00:53:40.797Z,10.48
2023-05-19T00:54:40.762Z,10.41
2023-05-19T00:55:40.771Z,10.42
2023-05-19T00:56:40.769Z,10.41
2023-05-19T00:57:40.732Z,10.46
2023-05-19T00:58:40.731Z,10.51
2023-05-19T00:59:40.711Z,10.49
2023-05-19T01:00:40.770Z,10.49
2023-05-19T01:01:40.710Z,10.44
2023-05-19T01:02:40.809Z,10.59
2023-05-19T01:03:40.743Z,10.42
2023-05-19T01:04:40.661Z,10.48
2023-05-19T01:05:40.679Z,10.53
2023-05-19T01:06:40.637Z,10.48
2023-05-19T01:07:40.638Z,10.44
2023-05-19T01:08:40.817Z,10.49
2023-05-19T01:09:40.685Z,10.48
2023-05-19T01:10:40.606Z,10.49
2023-05-19T01:11:40.611Z,10.49
2023-05-19T01:12:40.592Z,10.44
2023-05-19T01:13:42.083Z,10.49
2023-05-19T01:14:40.558Z,10.51
2023-05-19T01:15:40.556Z,10.48
2023-05-19T01:16:40.633Z,10.44
2023-05-19T01:17:40.600Z,10.48
2023-05-19T01:18:40.608Z,10.48
2023-05-19T01:19:40.520Z,10.46
2023-05-19T01:20:40.512Z,10.48
2023-05-19T01:21:40.493Z,10.53
2023-05-19T01:22:40.586Z,10.49
2023-05-19T01:23:40.477Z,10.44
2023-05-19T01:24:40.496Z,10.49
2023-05-19T01:25:40.533Z,10.22
2023-05-19T01:26:40.467Z,10.19
2023-05-19T01:27:40.436Z,10.13
2023-05-19T01:28:40.469Z,9.99
2023-05-19T01:29:40.488Z,9.94
2023-05-19T01:30:40.405Z,9.87
2023-05-19T01:31:40.523Z,9.89
2023-05-19T01:32:40.417Z,9.94
2023-05-19T01:33:40.405Z,9.86
2023-05-19T01:34:40.382Z,9.94
2023-05-19T01:35:40.378Z,9.89
2023-05-19T01:36:40.331Z,9.87
2023-05-19T01:37:40.383Z,9.87
2023-05-19T01:38:40.567Z,9.86
2023-05-19T01:39:40.336Z,9.82
2023-05-19T01:40:40.342Z,9.86
2023-05-19T01:41:40.336Z,9.86
2023-05-19T01:42:40.311Z,9.79
2023-05-19T01:43:40.339Z,9.97
2023-05-19T01:44:40.268Z,9.99
2023-05-19T01:45:40.334Z,9.99
2023-05-19T01:46:40.242Z,9.98
2023-05-19T01:47:40.325Z,10.10
2023-05-19T01:48:40.325Z,10.15
2023-05-19T01:49:40.216Z,10.09
2023-05-19T01:50:40.205Z,10.13
2023-05-19T01:51:40.201Z,10.17
2023-05-19T01:52:40.217Z,10.17
2023-05-19T01:53:40.175Z,10.20
2023-05-19T01:54:40.198Z,10.23
2023-05-19T01:55:40.212Z,10.30
2023-05-19T01:56:40.200Z,10.35
2023-05-19T01:57:40.280Z,10.30
2023-05-19T01:58:40.193Z,10.41
2023-05-19T01:59:40.159Z,10.41
2023-05-19T02:00:40.123Z,10.40
2023-05-19T02:01:40.238Z,10.40
2023-05-19T02:02:40.144Z,10.41
2023-05-19T02:03:40.098Z,10.25
2023-05-19T02:04:40.370Z,10.15
2023-05-19T02:05:40.098Z,10.07
2023-05-19T02:06:40.157Z,9.87
2023-05-19T02:07:40.079Z,9.80
2023-05-19T02:08:40.056Z,9.66
2023-05-19T02:09:40.058Z,9.58
2023-05-19T02:10:40.047Z,9.61
2023-05-19T02:11:39.996Z,9.61
2023-05-19T02:12:40.027Z,9.56
2023-05-19T02:13:40.017Z,9.58
2023-05-19T02:14:40.000Z,9.68
2023-05-19T02:15:40.040Z,9.80
2023-05-19T02:16:39.927Z,9.84
2023-05-19T02:17:39.968Z,9.94
2023-05-19T02:18:39.960Z,9.89
2023-05-19T02:19:40.140Z,9.99
2023-05-19T02:20:39.894Z,9.98
2023-05-19T02:21:39.881Z,10.15
2023-05-19T02:22:39.933Z,10.17
2023-05-19T02:23:39.872Z,10.20
2023-05-19T02:24:39.889Z,10.17
2023-05-19T02:25:39.863Z,10.19
2023-05-19T02:26:39.856Z,10.33
2023-05-19T02:27:39.863Z,10.31
2023-05-19T02:28:39.863Z,10.37
2023-05-19T02:29:39.901Z,10.35
2023-05-19T02:30:39.800Z,10.42
2023-05-19T02:31:39.892Z,10.46
2023-05-19T02:32:39.861Z,10.48
2023-05-19T02:33:39.831Z,10.49
2023-05-19T02:34:39.839Z,10.49
2023-05-19T02:35:39.752Z,10.40
2023-05-19T02:36:39.706Z,10.53
2023-05-19T02:37:39.719Z,10.44
2023-05-19T02:38:39.731Z,10.53
2023-05-19T02:39:39.759Z,10.48
2023-05-19T02:40:39.709Z,10.49
2023-05-19T02:41:39.685Z,10.57
2023-05-19T02:42:39.694Z,10.61
2023-05-19T02:43:39.684Z,10.53
2023-05-19T02:44:39.666Z,10.59
2023-05-19T02:45:39.753Z,10.54
2023-05-19T02:46:39.643Z,10.60
2023-05-19T02:47:39.634Z,10.54
2023-05-19T02:48:39.595Z,10.61
2023-05-19T02:49:39.590Z,10.57
2023-05-19T02:50:39.578Z,10.61
2023-05-19T02:51:39.577Z,10.61
2023-05-19T02:52:39.645Z,10.67
2023-05-19T02:53:39.556Z,10.57
2023-05-19T02:54:39.548Z,10.59
2023-05-19T02:55:39.545Z,10.53
2023-05-19T02:56:39.509Z,10.34
2023-05-19T02:57:39.503Z,10.26
2023-05-19T02:58:39.574Z,10.12
2023-05-19T02:59:39.543Z,10.15
2023-05-19T03:00:39.483Z,10.12
2023-05-19T03:01:39.556Z,10.13
2023-05-19T03:02:39.568Z,10.20
2023-05-19T03:03:39.604Z,10.22
2023-05-19T03:04:39.442Z,10.10
2023-05-19T03:05:39.474Z,10.19
2023-05-19T03:06:39.506Z,10.20
2023-05-19T03:07:39.430Z,10.20
2023-05-19T03:08:42.208Z,10.16
2023-05-19T03:09:39.415Z,10.04
2023-05-19T03:10:39.394Z,10.01
2023-05-19T03:11:39.505Z,10.12
2023-05-19T03:12:39.381Z,10.07
2023-05-19T03:13:39.366Z,9.97
2023-05-19T03:14:39.332Z,9.91
2023-05-19T03:15:39.355Z,9.83
2023-05-19T03:16:39.376Z,9.80
2023-05-19T03:17:39.558Z,9.74
2023-05-19T03:18:39.332Z,9.69
2023-05-19T03:19:39.285Z,9.68
2023-05-19T03:20:41.589Z,9.62
2023-05-19T03:21:39.430Z,9.76
2023-05-19T03:22:39.276Z,9.74
2023-05-19T03:23:39.290Z,9.65
2023-05-19T03:24:39.294Z,9.77
2023-05-19T03:25:39.209Z,9.82
2023-05-19T03:26:39.229Z,9.80
2023-05-19T03:27:39.202Z,9.83
2023-05-19T03:28:39.189Z,9.82
2023-05-19T03:29:39.184Z,9.82
2023-05-19T03:30:39.176Z,9.77
2023-05-19T03:31:39.227Z,9.80
2023-05-19T03:32:39.275Z,9.79
2023-05-19T03:33:39.310Z,9.82
2023-05-19T03:34:39.179Z,9.79
2023-05-19T03:35:39.140Z,9.72
2023-05-19T03:36:39.239Z,9.74
2023-05-19T03:37:39.149Z,9.69
2023-05-19T03:38:39.105Z,9.69
2023-05-19T03:39:39.077Z,9.72
2023-05-19T03:40:39.076Z,9.72
2023-05-19T03:41:39.176Z,9.72
2023-05-19T03:42:39.136Z,9.76
2023-05-19T03:43:39.092Z,9.74
2023-05-19T03:44:39.088Z,9.76
2023-05-19T03:45:39.052Z,9.79
2023-05-19T03:46:39.055Z,9.69
2023-05-19T03:47:39.108Z,9.77
2023-05-19T03:48:39.023Z,9.86
2023-05-19T03:49:38.992Z,9.86
2023-05-19T03:50:38.992Z,9.86
2023-05-19T03:51:39.001Z,9.89
2023-05-19T03:52:38.950Z,9.91
2023-05-19T03:53:38.956Z,9.86
2023-05-19T03:54:38.973Z,9.99
2023-05-19T03:55:39.000Z,10.01
2023-05-19T03:56:38.895Z,9.99
2023-05-19T03:57:38.956Z,10.10
2023-05-19T03:58:38.920Z,10.02
2023-05-19T03:59:39.000Z,10.10
2023-05-19T04:00:38.866Z,10.07
2023-05-19T04:01:38.888Z,10.07
2023-05-19T04:02:38.953Z,10.15
2023-05-19T04:03:38.917Z,10.15
2023-05-19T04:04:38.865Z,10.20
2023-05-19T04:05:38.903Z,10.17
2023-05-19T04:06:38.799Z,10.15
2023-05-19T04:07:38.787Z,10.17
2023-05-19T04:08:38.800Z,10.19
2023-05-19T04:09:38.778Z,10.25
2023-05-19T04:10:38.749Z,10.26
2023-05-19T04:11:38.771Z,10.34
2023-05-19T04:12:38.765Z,10.40
2023-05-19T04:13:38.749Z,10.37
2023-05-19T04:14:38.708Z,10.35
2023-05-19T04:15:38.732Z,10.37
2023-05-19T04:16:38.674Z,10.38
2023-05-19T04:17:38.779Z,10.42
2023-05-19T04:18:38.720Z,10.44
2023-05-19T04:19:38.670Z,10.51
2023-05-19T04:20:38.651Z,10.44
2023-05-19T04:21:38.654Z,10.53
2023-05-19T04:22:38.836Z,10.51
2023-05-19T04:23:38.632Z,10.60
2023-05-19T04:24:38.590Z,10.59
2023-05-19T04:25:38.585Z,10.60
2023-05-19T04:26:38.579Z,10.57
2023-05-19T04:27:38.580Z,10.59
2023-05-19T04:28:38.588Z,10.64
2023-05-19T04:29:38.582Z,10.69
2023-05-19T04:30:38.592Z,10.56
2023-05-19T04:31:38.659Z,10.67
2023-05-19T04:32:38.622Z,10.57
2023-05-19T04:33:38.535Z,10.61
2023-05-19T04:34:38.557Z,10.64
2023-05-19T04:35:38.542Z,10.57
2023-05-19T04:36:38.562Z,10.59
2023-05-19T04:37:38.700Z,10.57
2023-05-19T04:38:38.485Z,10.59
2023-05-19T04:39:38.484Z,10.63
2023-05-19T04:40:38.472Z,10.61
2023-05-19T04:41:38.534Z,10.68
2023-05-19T04:42:38.439Z,10.64
2023-05-19T04:43:38.404Z,10.71
2023-05-19T04:44:38.475Z,10.74
2023-05-19T04:45:38.383Z,10.86
2023-05-19T04:46:38.494Z,10.78
2023-05-19T04:47:38.424Z,10.84
2023-05-19T04:48:38.406Z,10.76
2023-05-19T04:49:38.511Z,10.78
2023-05-19T04:50:38.394Z,10.84
2023-05-19T04:51:38.343Z,10.86
2023-05-19T04:52:38.358Z,10.94
2023-05-19T04:53:38.397Z,10.87
2023-05-19T04:54:38.368Z,10.94
2023-05-19T04:55:38.321Z,10.96
2023-05-19T04:56:38.327Z,11.07
2023-05-19T04:57:38.282Z,11.12
2023-05-19T04:58:40.093Z,10.99
2023-05-19T04:59:38.266Z,11.10
2023-05-19T05:00:38.242Z,11.14
2023-05-19T05:01:38.243Z,11.22
2023-05-19T05:02:38.284Z,11.17
2023-05-19T05:03:38.274Z,11.26
2023-05-19T05:04:38.244Z,11.26
2023-05-19T05:05:38.242Z,11.22
2023-05-19T05:06:38.215Z,11.23
2023-05-19T05:07:38.200Z,11.27
2023-05-19T05:08:38.232Z,11.33
2023-05-19T05:09:38.181Z,11.29
2023-05-19T05:10:38.175Z,11.30
2023-05-19T05:11:38.136Z,11.27
2023-05-19T05:12:38.346Z,11.36
2023-05-19T05:13:38.106Z,11.37
2023-05-19T05:14:38.155Z,11.33
2023-05-19T05:15:38.113Z,11.44
2023-05-19T05:16:38.187Z,11.41
2023-05-19T05:17:38.123Z,11.37
2023-05-19T05:18:38.206Z,11.40
2023-05-19T05:19:38.317Z,11.36
2023-05-19T05:20:38.054Z,11.37
2023-05-19T05:21:38.122Z,11.41
2023-05-19T05:22:38.045Z,11.35
2023-05-19T05:23:38.045Z,11.47
2023-05-19T05:24:38.021Z,11.36
2023-05-19T05:25:38.059Z,11.45
2023-05-19T05:26:37.977Z,11.45
2023-05-19T05:27:37.993Z,11.50
2023-05-19T05:28:37.963Z,11.55
2023-05-19T05:29:37.987Z,11.59
2023-05-19T05:30:38.136Z,11.57
2023-05-19T05:31:37.945Z,11.52
2023-05-19T05:32:37.981Z,11.47
2023-05-19T05:33:38.043Z,11.36
2023-05-19T05:34:37.917Z,11.41
2023-05-19T05:35:37.904Z,11.33
2023-05-19T05:36:37.875Z,11.32
2023-05-19T05:37:37.877Z,11.37
2023-05-19T05:38:38.079Z,11.36
2023-05-19T05:39:37.866Z,11.43
2023-05-19T05:40:37.933Z,11.40
2023-05-19T05:41:37.889Z,11.29
2023-05-19T05:42:37.876Z,11.37
2023-05-19T05:43:37.832Z,11.36
2023-05-19T05:44:37.835Z,11.40
2023-05-19T05:45:37.824Z,11.33
2023-05-19T05:46:37.825Z,11.48
2023-05-19T05:47:37.843Z,11.52
2023-05-19T05:48:37.798Z,11.52
2023-05-19T05:49:37.800Z,11.54
2023-05-19T05:50:37.784Z,11.59
2023-05-19T05:51:37.788Z,11.57
2023-05-19T05:52:37.770Z,11.68
2023-05-19T05:53:37.814Z,11.65
2023-05-19T05:54:37.825Z,11.66
2023-05-19T05:55:37.753Z,11.59
2023-05-19T05:56:37.722Z,11.69
2023-05-19T05:57:37.925Z,11.77
2023-05-19T05:58:37.723Z,11.84
2023-05-19T05:59:37.660Z,11.90
2023-05-19T06:00:37.668Z,12.03
2023-05-19T06:01:37.671Z,12.20
2023-05-19T06:02:37.848Z,12.12
2023-05-19T06:03:37.727Z,12.07
2023-05-19T06:04:37.639Z,12.15
2023-05-19T06:05:37.712Z,12.28
2023-05-19T06:06:37.655Z,12.24
2023-05-19T06:07:37.666Z,12.20
2023-05-19T06:08:37.656Z,12.22
2023-05-19T06:09:37.564Z,12.22
2023-05-19T06:10:37.807Z,12.35
2023-05-19T06:11:37.574Z,12.47
2023-05-19T06:12:37.600Z,12.55
2023-05-19T06:13:37.613Z,12.58
2023-05-19T06:14:37.553Z,12.54
2023-05-19T06:15:37.624Z,12.61
2023-05-19T06:16:37.799Z,12.55
2023-05-19T06:17:37.579Z,12.50
2023-05-19T06:18:37.534Z,12.62
2023-05-19T06:19:37.515Z,12.54
2023-05-19T06:20:37.492Z,12.64
2023-05-19T06:21:37.488Z,12.53
2023-05-19T06:22:37.530Z,12.62
2023-05-19T06:23:37.471Z,12.54
2023-05-19T06:24:39.452Z,12.58
2023-05-19T06:25:37.462Z,12.75
2023-05-19T06:26:37.424Z,12.87
2023-05-19T06:27:37.477Z,12.86
2023-05-19T06:28:37.486Z,12.80
2023-05-19T06:29:37.475Z,12.83
2023-05-19T06:30:37.437Z,12.86
2023-05-19T06:31:37.439Z,12.83
2023-05-19T06:32:37.426Z,12.93
2023-05-19T06:33:37.361Z,12.94
2023-05-19T06:34:37.337Z,13.11
2023-05-19T06:35:37.362Z,13.08
2023-05-19T06:36:37.328Z,13.09
2023-05-19T06:37:37.342Z,13.05
2023-05-19T06:38:37.326Z,13.11
2023-05-19T06:39:37.346Z,12.97
2023-05-19T06:40:37.356Z,13.03
2023-05-19T06:41:37.532Z,13.01
2023-05-19T06:42:37.314Z,13.08
2023-05-19T06:43:37.311Z,13.13
2023-05-19T06:44:37.282Z,13.09
2023-05-19T06:45:37.285Z,13.25
2023-05-19T06:46:37.309Z,13.46
2023-05-19T06:47:37.252Z,13.47
2023-05-19T06:48:37.256Z,13.75
2023-05-19T06:49:37.253Z,13.92
2023-05-19T06:50:37.265Z,14.07
2023-05-19T06:51:37.230Z,14.26
2023-05-19T06:52:37.236Z,14.23
2023-05-19T06:53:37.216Z,14.40
2023-05-19T06:54:37.214Z,14.50
2023-05-19T06:55:46.942Z,14.68
2023-05-19T06:56:37.168Z,14.66
2023-05-19T06:57:37.180Z,14.65
2023-05-19T06:58:37.175Z,14.55
2023-05-19T06:59:37.142Z,14.51
2023-05-19T07:00:37.230Z,14.54
2023-05-19T07:01:37.266Z,14.69
2023-05-19T07:02:37.228Z,14.99
2023-05-19T07:03:37.320Z,14.99
2023-05-19T07:04:37.507Z,14.88
2023-05-19T07:05:37.098Z,14.89
2023-05-19T07:06:37.084Z,14.89
2023-05-19T07:07:37.089Z,15.09
2023-05-19T07:08:37.139Z,15.29
2023-05-19T07:09:37.062Z,15.64
2023-05-19T07:10:37.054Z,15.79
2023-05-19T07:11:37.082Z,15.65
2023-05-19T07:12:37.054Z,15.61
2023-05-19T07:13:37.048Z,15.70
2023-05-19T07:14:37.063Z,15.91
2023-05-19T07:15:37.013Z,15.91
2023-05-19T07:16:37.258Z,15.62
2023-05-19T07:17:37.116Z,15.47
2023-05-19T07:18:37.040Z,15.64
2023-05-19T07:19:37.175Z,15.55
2023-05-19T07:20:36.987Z,15.21
2023-05-19T07:21:37.004Z,15.18
2023-05-19T07:22:36.975Z,15.25
2023-05-19T07:23:36.990Z,15.54
2023-05-19T07:24:36.957Z,15.70
2023-05-19T07:25:36.959Z,15.92
2023-05-19T07:26:36.940Z,15.92
2023-05-19T07:27:36.961Z,15.77
2023-05-19T07:28:37.768Z,15.90
2023-05-19T07:29:36.949Z,15.86
2023-05-19T07:30:36.897Z,15.92
2023-05-19T07:31:36.983Z,16.05
2023-05-19T07:32:36.899Z,16.24
2023-05-19T07:33:36.989Z,16.08
2023-05-19T07:34:36.872Z,16.24
2023-05-19T07:35:36.878Z,16.26
2023-05-19T07:36:37.084Z,16.21
2023-05-19T07:37:36.851Z,16.35
2023-05-19T07:38:36.896Z,16.50
2023-05-19T07:39:36.872Z,16.39
2023-05-19T07:40:36.861Z,16.21
2023-05-19T07:41:36.820Z,16.31
2023-05-19T07:42:37.024Z,16.39
2023-05-19T07:43:36.807Z,16.16
2023-05-19T07:44:37.013Z,16.20
2023-05-19T07:45:36.827Z,16.23
2023-05-19T07:46:36.925Z,15.86
2023-05-19T07:47:36.835Z,15.91
2023-05-19T07:48:36.780Z,16.04
2023-05-19T07:49:36.848Z,15.88
2023-05-19T07:50:36.770Z,15.70
2023-05-19T07:51:36.974Z,15.79
2023-05-19T07:52:36.797Z,15.80
2023-05-19T07:53:36.763Z,15.91
2023-05-19T07:54:36.759Z,15.80
2023-05-19T07:55:36.737Z,16.16
2023-05-19T07:56:36.806Z,16.32
2023-05-19T07:57:36.716Z,16.24
2023-05-19T07:58:36.710Z,16.28
2023-05-19T07:59:36.903Z,16.36
2023-05-19T08:00:36.731Z,16.50
2023-05-19T08:01:36.748Z,16.74
2023-05-19T08:02:36.774Z,16.58
2023-05-19T08:03:36.854Z,16.41
2023-05-19T08:04:36.773Z,16.41
2023-05-19T08:05:36.714Z,16.56
2023-05-19T08:06:36.659Z,16.58
2023-05-19T08:07:36.665Z,16.64
2023-05-19T08:08:36.727Z,16.71
2023-05-19T08:09:36.651Z,16.84
2023-05-19T08:10:36.836Z,16.87
2023-05-19T08:11:36.644Z,16.94
2023-05-19T08:12:36.629Z,16.50
2023-05-19T08:13:37.052Z,16.28
2023-05-19T08:14:36.612Z,16.50
2023-05-19T08:15:36.686Z,16.65
2023-05-19T08:16:36.644Z,16.68
2023-05-19T08:17:36.806Z,16.75
2023-05-19T08:18:36.587Z,16.71
2023-05-19T08:19:36.579Z,16.32
2023-05-19T08:20:36.582Z,16.38
2023-05-19T08:21:36.608Z,16.16
2023-05-19T08:22:36.601Z,16.21
2023-05-19T08:23:36.556Z,15.97
2023-05-19T08:24:36.567Z,15.92
2023-05-19T08:25:36.598Z,15.95
2023-05-19T08:26:37.916Z,15.90
2023-05-19T08:27:36.549Z,16.05
2023-05-19T08:28:36.527Z,16.10
2023-05-19T08:29:36.525Z,16.21
2023-05-19T08:30:36.716Z,16.36
2023-05-19T08:31:36.546Z,16.53
2023-05-19T08:32:36.540Z,16.47
2023-05-19T08:33:36.493Z,16.50
2023-05-19T08:34:36.488Z,16.51
2023-05-19T08:35:36.513Z,16.68
2023-05-19T08:36:36.528Z,16.69
2023-05-19T08:37:36.707Z,16.71
2023-05-19T08:38:36.462Z,16.54
2023-05-19T08:39:36.498Z,16.43
2023-05-19T08:40:36.484Z,16.56
2023-05-19T08:41:36.486Z,16.57
2023-05-19T08:42:36.645Z,16.41
2023-05-19T08:43:36.461Z,16.10
2023-05-19T08:44:36.451Z,16.16
2023-05-19T08:45:36.420Z,16.09
2023-05-19T08:46:36.542Z,16.23
2023-05-19T08:47:36.452Z,16.41
2023-05-19T08:48:36.413Z,16.49
2023-05-19T08:49:36.434Z,16.36
2023-05-19T08:50:36.417Z,16.32
2023-05-19T08:51:36.411Z,16.33
2023-05-19T08:52:36.592Z,16.24
2023-05-19T08:53:36.413Z,16.35
2023-05-19T08:54:36.366Z,16.47
2023-05-19T08:55:36.384Z,16.42
2023-05-19T08:56:36.382Z,16.69
2023-05-19T08:57:36.338Z,16.72
2023-05-19T08:58:36.341Z,16.78
2023-05-19T08:59:36.327Z,16.89
2023-05-19T09:00:36.760Z,16.97
2023-05-19T09:02:36.414Z,16.79
2023-05-19T09:03:36.353Z,16.87
2023-05-19T09:04:36.426Z,17.04
2023-05-19T09:05:36.640Z,17.14
2023-05-19T09:06:36.499Z,17.16
2023-05-19T09:07:36.280Z,17.23
2023-05-19T09:08:36.285Z,17.23
2023-05-19T09:09:36.342Z,17.42
2023-05-19T09:10:36.278Z,17.45
2023-05-19T09:11:36.277Z,17.63
2023-05-19T09:12:36.253Z,17.74
2023-05-19T09:13:36.234Z,18.01
2023-05-19T09:14:36.242Z,17.98
2023-05-19T09:15:36.639Z,18.22
2023-05-19T09:16:36.282Z,18.44
2023-05-19T09:17:36.276Z,18.19
2023-05-19T09:18:36.228Z,17.86
2023-05-19T09:19:36.244Z,17.80
2023-05-19T09:20:36.174Z,17.94
2023-05-19T09:21:36.215Z,17.87
2023-05-19T09:22:36.216Z,18.04
2023-05-19T09:23:36.193Z,17.97
2023-05-19T09:24:36.205Z,17.98
2023-05-19T09:25:36.306Z,18.10
2023-05-19T09:26:36.161Z,18.31
2023-05-19T09:27:36.135Z,18.65
2023-05-19T09:28:36.151Z,18.62
2023-05-19T09:29:36.344Z,18.65
2023-05-19T09:30:36.135Z,18.89
2023-05-19T09:31:36.198Z,19.12
2023-05-19T09:32:36.144Z,19.29
2023-05-19T09:33:36.111Z,19.62
2023-05-19T09:34:36.146Z,19.85
2023-05-19T09:35:36.122Z,19.56
2023-05-19T09:36:36.110Z,19.18
2023-05-19T09:37:36.117Z,18.98
2023-05-19T09:38:36.089Z,19.11
2023-05-19T09:39:36.070Z,18.80
2023-05-19T09:40:36.117Z,18.80
2023-05-19T09:41:36.171Z,18.43
2023-05-19T09:42:36.079Z,18.20
2023-05-19T09:43:36.067Z,18.33
2023-05-19T09:44:36.076Z,18.26
2023-05-19T09:45:36.040Z,18.38
2023-05-19T09:46:36.064Z,18.26
2023-05-19T09:47:36.120Z,18.01
2023-05-19T09:48:36.060Z,17.89
2023-05-19T09:49:36.026Z,17.85
2023-05-19T09:50:36.044Z,17.94
2023-05-19T09:51:36.004Z,17.82
2023-05-19T09:52:36.092Z,18.00
2023-05-19T09:53:36.035Z,18.23
2023-05-19T09:54:35.991Z,18.66
2023-05-19T09:55:36.023Z,18.92
2023-05-19T09:56:35.986Z,18.83
2023-05-19T09:57:36.016Z,18.60
2023-05-19T09:58:35.976Z,18.37
2023-05-19T09:59:35.972Z,18.20
2023-05-19T10:00:35.966Z,18.59
2023-05-19T10:01:36.011Z,18.58
2023-05-19T10:02:35.998Z,18.74
2023-05-19T10:03:35.963Z,18.90
2023-05-19T10:04:35.988Z,19.14
2023-05-19T10:05:36.232Z,19.11
2023-05-19T10:06:35.921Z,19.27
2023-05-19T10:07:35.943Z,19.04
2023-05-19T10:08:36.187Z,18.29
2023-05-19T10:09:35.915Z,18.00
2023-05-19T10:10:35.928Z,18.33
2023-05-19T10:11:35.954Z,18.62
2023-05-19T10:12:35.905Z,18.88
2023-05-19T10:13:36.024Z,18.74
2023-05-19T10:14:35.922Z,18.60
2023-05-19T10:15:40.877Z,18.68
2023-05-19T10:16:35.904Z,18.98
2023-05-19T10:17:35.964Z,18.99
2023-05-19T10:18:37.575Z,18.81
2023-05-19T10:19:35.917Z,18.59
2023-05-19T10:20:35.923Z,18.63
2023-05-19T10:21:35.863Z,18.60
2023-05-19T10:22:35.846Z,18.40
2023-05-19T10:23:35.849Z,18.44
2023-05-19T10:24:35.843Z,17.86
2023-05-19T10:25:35.898Z,17.85
2023-05-19T10:26:35.831Z,17.79
2023-05-19T10:27:35.823Z,17.87
2023-05-19T10:28:35.814Z,17.74
2023-05-19T10:29:35.929Z,17.89
2023-05-19T10:30:35.820Z,18.03
2023-05-19T10:31:35.870Z,18.15
2023-05-19T10:32:35.845Z,18.08
2023-05-19T10:33:35.813Z,18.25
2023-05-19T10:34:35.784Z,18.38
2023-05-19T10:35:36.157Z,18.38
2023-05-19T10:36:35.996Z,18.65
2023-05-19T10:37:35.776Z,18.68
2023-05-19T10:38:35.758Z,18.52
2023-05-19T10:39:35.802Z,18.63
2023-05-19T10:40:35.778Z,18.80
2023-05-19T10:41:35.794Z,18.96
2023-05-19T10:42:35.793Z,18.81
2023-05-19T10:43:35.809Z,18.70
2023-05-19T10:44:35.760Z,18.75
2023-05-19T10:45:36.116Z,18.70
2023-05-19T10:46:35.772Z,18.44
2023-05-19T10:47:35.782Z,18.53
2023-05-19T10:48:35.743Z,18.63
2023-05-19T10:49:35.794Z,18.62
2023-05-19T10:50:35.728Z,18.60
2023-05-19T10:51:35.727Z,18.37
2023-05-19T10:52:35.725Z,18.38
2023-05-19T10:53:35.768Z,18.60
2023-05-19T10:54:35.715Z,18.65
2023-05-19T10:55:35.705Z,18.60
2023-05-19T10:56:35.676Z,18.83
2023-05-19T10:57:35.677Z,19.19
2023-05-19T10:58:35.712Z,19.51
2023-05-19T10:59:35.709Z,19.49
2023-05-19T11:00:35.639Z,19.81
2023-05-19T11:01:35.822Z,20.04
2023-05-19T11:02:35.698Z,20.13
2023-05-19T11:03:35.676Z,20.10
2023-05-19T11:04:35.903Z,20.02
2023-05-19T11:05:35.815Z,20.31
2023-05-19T11:06:36.026Z,20.26
2023-05-19T11:07:35.925Z,20.11
2023-05-19T11:08:35.605Z,19.96
2023-05-19T11:09:40.493Z,19.45
2023-05-19T11:10:35.615Z,19.49
2023-05-19T11:11:35.624Z,19.63
2023-05-19T11:12:35.611Z,19.76
2023-05-19T11:13:36.724Z,19.79
2023-05-19T11:14:35.593Z,19.88
2023-05-19T11:15:35.579Z,19.92
2023-05-19T11:16:35.662Z,19.73
2023-05-19T11:17:35.675Z,19.62
2023-05-19T11:18:35.596Z,19.33
2023-05-19T11:19:35.579Z,19.22
2023-05-19T11:20:35.585Z,19.16
2023-05-19T11:21:35.779Z,19.30
2023-05-19T11:22:35.566Z,19.48
2023-05-19T11:23:35.827Z,19.52
2023-05-19T11:24:35.556Z,19.37
2023-05-19T11:25:35.537Z,19.12
2023-05-19T11:26:35.527Z,18.88
2023-05-19T11:27:35.557Z,18.55
2023-05-19T11:28:35.530Z,18.60
2023-05-19T11:29:35.548Z,18.58
2023-05-19T11:30:35.525Z,18.56
2023-05-19T11:31:35.545Z,18.47
2023-05-19T11:32:35.593Z,18.58
2023-05-19T11:33:35.518Z,18.55
2023-05-19T11:34:35.529Z,18.38
2023-05-19T11:35:36.517Z,18.43
2023-05-19T11:36:35.485Z,18.43
2023-05-19T11:37:35.482Z,18.44
2023-05-19T11:38:35.485Z,18.43
2023-05-19T11:39:35.677Z,18.58
2023-05-19T11:40:35.454Z,18.63
2023-05-19T11:41:35.657Z,18.75
2023-05-19T11:42:35.474Z,18.89
2023-05-19T11:43:35.447Z,18.83
2023-05-19T11:44:35.426Z,18.89
2023-05-19T11:45:35.697Z,18.65
2023-05-19T11:46:35.489Z,18.55
2023-05-19T11:49:18.693Z,18.89
2023-05-19T11:50:18.607Z,18.92
2023-05-19T11:51:18.603Z,19.00
2023-05-19T11:52:18.600Z,18.80
2023-05-19T11:53:21.428Z,18.93
2023-05-19T11:54:18.646Z,18.89
2023-05-19T11:55:18.620Z,18.88
2023-05-19T11:56:18.613Z,18.77
2023-05-19T11:57:18.573Z,18.68
2023-05-19T11:58:18.615Z,18.55
2023-05-19T11:59:18.595Z,18.53
2023-05-19T12:00:18.550Z,18.77
2023-05-19T12:01:18.570Z,18.88
2023-05-19T12:02:18.587Z,18.95
2023-05-19T12:03:18.618Z,18.95
2023-05-19T12:04:18.541Z,18.77
2023-05-19T12:05:18.730Z,18.75
2023-05-19T12:06:18.571Z,18.62
2023-05-19T12:07:18.567Z,18.71
2023-05-19T12:08:18.539Z,18.73
2023-05-19T12:09:18.510Z,18.60
2023-05-19T12:10:18.507Z,18.63
2023-05-19T12:11:19.966Z,18.58
2023-05-19T12:12:18.522Z,18.58
2023-05-19T12:13:18.486Z,18.80
2023-05-19T12:14:18.511Z,18.90
2023-05-19T12:15:18.455Z,19.04
2023-05-19T12:16:18.497Z,19.04
2023-05-19T12:17:18.518Z,19.12
2023-05-19T12:18:18.475Z,19.16
2023-05-19T12:19:18.486Z,19.11
2023-05-19T12:20:18.421Z,19.14
2023-05-19T12:21:18.455Z,19.27
2023-05-19T12:22:18.417Z,19.34
2023-05-19T12:23:18.433Z,19.33
2023-05-19T12:24:18.397Z,19.14
2023-05-19T12:25:18.445Z,18.81
2023-05-19T12:26:18.394Z,18.59
2023-05-19T12:27:18.428Z,18.65
2023-05-19T12:28:18.411Z,18.89
2023-05-19T12:29:18.409Z,18.99
2023-05-19T12:30:18.418Z,19.12
2023-05-19T12:31:18.390Z,19.04
2023-05-19T12:32:18.364Z,19.11
2023-05-19T12:33:18.430Z,19.18
2023-05-19T12:34:18.399Z,19.21
2023-05-19T12:35:18.340Z,19.21
2023-05-19T12:36:18.401Z,19.12
2023-05-19T12:37:18.618Z,19.07
2023-05-19T12:38:18.354Z,19.16
2023-05-19T12:39:19.514Z,19.24
2023-05-19T12:40:18.342Z,19.11
2023-05-19T12:41:18.349Z,18.78
2023-05-19T12:42:18.361Z,18.49
2023-05-19T12:43:18.335Z,18.35
2023-05-19T12:44:18.328Z,18.59
2023-05-19T12:45:18.304Z,18.74
2023-05-19T12:46:18.358Z,18.96
2023-05-19T12:47:18.280Z,19.22
2023-05-19T12:48:18.375Z,19.37
2023-05-19T12:49:18.319Z,19.26
2023-05-19T12:50:18.285Z,19.22
2023-05-19T12:51:18.328Z,19.11
2023-05-19T12:52:18.248Z,19.07
2023-05-19T12:53:18.337Z,19.02
2023-05-19T12:54:18.342Z,19.21
2023-05-19T12:55:18.241Z,19.24
2023-05-19T12:56:18.263Z,19.19
2023-05-19T12:57:18.270Z,19.16
2023-05-19T12:58:18.637Z,19.12